createdAt,value
2016-06-09T05:20:26.748Z,995.41
2016-06-09T05:21:20.313Z,995.42
2016-06-09T05:22:20.300Z,995.36
2016-06-09T05:23:20.319Z,995.36
2016-06-09T05:24:20.322Z,995.31
2016-06-09T05:25:20.325Z,995.29
2016-06-09T05:26:20.345Z,995.28
2016-06-09T05:27:20.582Z,995.28
2016-06-09T05:28:20.351Z,995.36
2016-06-09T05:29:20.384Z,995.37
2016-06-09T05:30:20.404Z,995.36
2016-06-09T05:31:20.391Z,995.38
2016-06-09T05:32:20.425Z,995.41
2016-06-09T05:33:20.444Z,995.44
2016-06-09T05:34:20.525Z,995.39
2016-06-09T05:35:20.997Z,995.43
2016-06-09T05:36:20.438Z,995.43
2016-06-09T05:37:20.456Z,995.47
2016-06-09T05:38:20.459Z,995.5
2016-06-09T05:39:20.477Z,995.43
2016-06-09T05:40:20.481Z,995.42
2016-06-09T05:41:20.922Z,995.4
2016-06-09T05:43:20.522Z,995.45
2016-06-09T05:44:20.524Z,995.43
2016-06-09T05:45:20.543Z,995.44
2016-06-09T05:46:20.545Z,995.44
2016-06-09T05:47:20.752Z,995.48
2016-06-09T05:48:20.599Z,995.47
2016-06-09T05:49:20.571Z,995.49
2016-06-09T05:50:21.168Z,995.43
2016-06-09T05:51:20.608Z,995.46
2016-06-09T05:52:20.611Z,995.5
2016-06-09T05:53:20.614Z,995.52
2016-06-09T05:54:20.633Z,995.58
2016-06-09T05:55:20.652Z,995.59
2016-06-09T05:56:20.655Z,995.56
2016-06-09T05:57:20.673Z,995.54
2016-06-09T05:58:20.693Z,995.64
2016-06-09T05:59:20.696Z,995.59
2016-06-09T06:00:20.933Z,995.57
2016-06-09T06:01:20.749Z,995.61
2016-06-09T06:02:20.753Z,995.59
2016-06-09T06:03:20.739Z,995.5
2016-06-09T06:04:20.759Z,995.5
2016-06-09T06:06:20.764Z,995.59
2016-06-09T06:07:20.798Z,995.6
2016-06-09T06:08:20.785Z,995.65
2016-06-09T06:09:20.804Z,995.6
2016-06-09T06:10:20.823Z,995.53
2016-06-09T06:11:21.233Z,995.59
2016-06-09T06:12:21.079Z,995.62
2016-06-09T06:14:20.851Z,995.4
2016-06-09T06:15:20.870Z,995.37
2016-06-09T06:16:21.091Z,995.3
2016-06-09T06:17:20.891Z,995.32
2016-06-09T06:18:20.910Z,995.41
2016-06-09T06:19:20.914Z,995.39
2016-06-09T06:20:21.354Z,995.41
2016-06-09T06:21:20.936Z,995.4
2016-06-09T06:22:21.032Z,995.43
2016-06-09T06:23:21.207Z,995.41
2016-06-09T06:24:21.023Z,995.4
2016-06-09T06:25:21.198Z,995.35
2016-06-09T06:26:20.997Z,995.34
2016-06-09T06:27:21.016Z,995.35
2016-06-09T06:28:21.019Z,995.39
2016-06-09T06:29:21.038Z,995.36
2016-06-09T06:30:21.042Z,995.34
2016-06-09T06:31:21.059Z,995.37
2016-06-09T06:32:21.062Z,995.41
2016-06-09T06:34:21.101Z,995.41
2016-06-09T06:35:21.103Z,995.42
2016-06-09T06:36:21.310Z,995.41
2016-06-09T06:37:21.125Z,995.43
2016-06-09T06:38:21.144Z,995.45
2016-06-09T06:39:21.147Z,995.46
2016-06-09T06:40:21.150Z,995.49
2016-06-09T06:41:21.168Z,995.54
2016-06-09T06:42:21.187Z,995.5
2016-06-09T06:43:21.393Z,995.52
2016-06-09T06:44:21.210Z,995.54
2016-06-09T06:45:21.243Z,995.61
2016-06-09T06:46:21.246Z,995.58
2016-06-09T06:47:21.249Z,995.57
2016-06-09T06:48:21.253Z,995.52
2016-06-09T06:49:21.272Z,995.5
2016-06-09T06:50:21.509Z,995.53
2016-06-09T06:51:21.278Z,995.54
2016-06-09T06:52:21.295Z,995.5
2016-06-09T06:53:21.315Z,995.56
2016-06-09T06:54:21.318Z,995.58
2016-06-09T06:55:21.758Z,995.61
2016-06-09T06:56:21.355Z,995.58
2016-06-09T06:57:21.561Z,995.57
2016-06-09T06:58:21.377Z,995.6
2016-06-09T06:59:21.381Z,995.69
2016-06-09T07:00:21.384Z,995.72
2016-06-09T07:01:21.417Z,995.65
2016-06-09T07:02:21.420Z,995.64
2016-06-09T07:03:21.424Z,995.65
2016-06-09T07:04:21.427Z,995.56
2016-06-09T07:05:21.538Z,995.64
2016-06-09T07:06:21.495Z,995.54
2016-06-09T07:07:21.483Z,995.48
2016-06-09T07:08:21.486Z,995.43
2016-06-09T07:09:21.504Z,995.45
2016-06-09T07:10:21.507Z,995.54
2016-06-09T07:11:21.527Z,995.66
2016-06-09T07:12:21.529Z,995.75
2016-06-09T07:13:21.563Z,995.66
2016-06-09T07:14:21.566Z,995.62
2016-06-09T07:15:21.570Z,995.66
2016-06-09T07:16:21.650Z,995.68
2016-06-09T07:17:21.623Z,995.71
2016-06-09T07:18:21.610Z,995.72
2016-06-09T07:19:21.629Z,995.74
2016-06-09T07:20:21.632Z,995.71
2016-06-09T07:21:21.651Z,995.79
2016-06-09T07:22:21.654Z,995.71
2016-06-09T07:23:21.672Z,995.64
2016-06-09T07:24:21.691Z,995.68
2016-06-09T07:25:21.710Z,995.65
2016-06-09T07:26:21.714Z,995.63
2016-06-09T07:27:21.717Z,995.56
2016-06-09T07:28:21.735Z,995.52
2016-06-09T07:29:21.753Z,995.54
2016-06-09T07:30:21.773Z,995.53
2016-06-09T07:31:21.776Z,995.58
2016-06-09T07:32:21.794Z,995.65
2016-06-09T07:33:21.813Z,995.7
2016-06-09T07:34:21.830Z,995.7
2016-06-09T07:35:22.084Z,995.7
2016-06-09T07:36:21.837Z,995.6
2016-06-09T07:37:21.856Z,995.62
2016-06-09T07:38:21.859Z,995.63
2016-06-09T07:39:21.878Z,995.61
2016-06-09T07:40:21.928Z,995.65
2016-06-09T07:42:21.918Z,995.67
2016-06-09T07:44:22.143Z,995.67
2016-06-09T07:45:21.944Z,995.68
2016-06-09T07:46:21.962Z,995.67
2016-06-09T07:47:21.981Z,995.77
2016-06-09T07:48:21.999Z,995.72
2016-06-09T07:49:22.002Z,995.83
2016-06-09T07:50:22.255Z,995.86
2016-06-09T07:52:22.262Z,995.64
2016-06-09T07:53:22.077Z,995.68
2016-06-09T07:54:22.064Z,995.77
2016-06-09T07:55:22.083Z,995.85
2016-06-09T07:56:22.103Z,995.76
2016-06-09T07:57:22.137Z,995.62
2016-06-09T07:58:22.327Z,995.56
2016-06-09T07:59:22.345Z,995.51
2016-06-09T08:00:22.146Z,995.56
2016-06-09T08:01:22.180Z,995.63
2016-06-09T08:02:22.183Z,995.68
2016-06-09T08:03:22.202Z,995.72
2016-06-09T08:04:22.220Z,995.71
2016-06-09T08:05:22.817Z,995.71
2016-06-09T08:06:22.243Z,995.73
2016-06-09T08:07:22.245Z,995.78
2016-06-09T08:08:22.249Z,995.81
2016-06-09T08:09:22.299Z,995.75
2016-06-09T08:10:22.285Z,995.72
2016-06-09T08:11:22.305Z,995.69
2016-06-09T08:12:22.308Z,995.72
2016-06-09T08:13:22.325Z,995.81
2016-06-09T08:14:22.345Z,995.72
2016-06-09T08:15:22.363Z,995.7
2016-06-09T08:16:22.367Z,995.69
2016-06-09T08:17:22.385Z,995.65
2016-06-09T08:18:22.388Z,995.68
2016-06-09T08:19:22.407Z,995.7
2016-06-09T08:20:22.895Z,995.67
2016-06-09T08:21:22.663Z,995.64
2016-06-09T08:22:22.433Z,995.61
2016-06-09T08:23:22.466Z,995.68
2016-06-09T08:24:22.470Z,995.85
2016-06-09T08:25:22.475Z,995.93
2016-06-09T08:26:22.535Z,995.89
2016-06-09T08:27:22.581Z,995.92
2016-06-09T08:28:22.658Z,995.93
2016-06-09T08:29:22.705Z,995.96
2016-06-09T08:30:22.749Z,995.96
2016-06-09T08:31:23.001Z,995.96
2016-06-09T08:32:22.817Z,995.95
2016-06-09T08:33:22.835Z,995.97
2016-06-09T08:34:22.869Z,995.91
2016-06-09T08:35:22.918Z,995.9
2016-06-09T08:36:22.911Z,995.84
2016-06-09T08:37:22.936Z,995.76
2016-06-09T08:38:22.959Z,995.72
2016-06-09T08:40:22.991Z,995.77
2016-06-09T08:41:23.012Z,995.79
2016-06-09T08:42:23.033Z,995.79
2016-06-09T08:43:23.038Z,995.73
2016-06-09T08:44:23.059Z,995.71
2016-06-09T08:45:23.094Z,995.65
2016-06-09T08:46:23.098Z,995.74
2016-06-09T08:47:23.102Z,995.75
2016-06-09T08:48:23.122Z,995.75
2016-06-09T08:49:23.126Z,995.82
2016-06-09T08:50:23.161Z,995.9
2016-06-09T08:51:23.164Z,995.85
2016-06-09T08:52:23.167Z,995.83
2016-06-09T08:53:23.187Z,995.82
2016-06-09T08:54:23.191Z,995.84
2016-06-09T08:55:23.209Z,995.84
2016-06-09T08:56:23.229Z,995.76
2016-06-09T08:57:23.247Z,995.71
2016-06-09T08:58:23.266Z,995.67
2016-06-09T08:59:23.285Z,995.73
2016-06-09T09:00:23.302Z,995.75
2016-06-09T09:01:23.305Z,995.76
2016-06-09T09:02:23.308Z,995.77
2016-06-09T09:03:23.327Z,995.71
2016-06-09T09:04:23.361Z,995.71
2016-06-09T09:05:23.693Z,995.8
2016-06-09T09:06:23.571Z,995.84
2016-06-09T09:07:23.387Z,995.83
2016-06-09T09:08:23.406Z,995.75
2016-06-09T09:09:23.424Z,995.81
2016-06-09T09:10:23.630Z,995.85
2016-06-09T09:11:23.447Z,995.85
2016-06-09T09:12:23.464Z,995.86
2016-06-09T09:13:23.484Z,995.87
2016-06-09T09:14:23.503Z,995.87
2016-06-09T09:15:23.537Z,995.83
2016-06-09T09:16:23.539Z,995.9
2016-06-09T09:17:23.527Z,995.81
2016-06-09T09:18:23.749Z,995.77
2016-06-09T09:19:23.565Z,995.66
2016-06-09T09:20:23.583Z,995.64
2016-06-09T09:21:23.586Z,995.54
2016-06-09T09:22:23.605Z,995.49
2016-06-09T09:23:23.623Z,995.5
2016-06-09T09:24:23.626Z,995.57
2016-06-09T09:25:23.848Z,995.64
2016-06-09T09:26:23.679Z,995.7
2016-06-09T09:27:23.698Z,995.73
2016-06-09T09:28:23.702Z,995.82
2016-06-09T09:29:23.720Z,995.8
2016-06-09T09:30:23.723Z,995.72
2016-06-09T09:31:23.742Z,995.66
2016-06-09T09:32:23.760Z,995.62
2016-06-09T09:33:23.810Z,995.56
2016-06-09T09:34:24.017Z,995.53
2016-06-09T09:35:23.801Z,995.51
2016-06-09T09:36:24.038Z,995.54
2016-06-09T09:37:23.838Z,995.6
2016-06-09T09:38:23.858Z,995.6
2016-06-09T09:39:23.876Z,995.54
2016-06-09T09:40:24.113Z,995.5
2016-06-09T09:41:23.913Z,995.56
2016-06-09T09:42:23.932Z,995.52
2016-06-09T09:43:23.919Z,995.5
2016-06-09T09:44:23.938Z,995.5
2016-06-09T09:45:23.957Z,995.56
2016-06-09T09:46:23.976Z,995.58
2016-06-09T09:47:24.213Z,995.63
2016-06-09T09:48:23.996Z,995.62
2016-06-09T09:49:24.016Z,995.63
2016-06-09T09:50:24.066Z,995.52
2016-06-09T09:51:24.054Z,995.5
2016-06-09T09:52:24.057Z,995.56
2016-06-09T09:53:24.075Z,995.64
2016-06-09T09:54:24.093Z,995.72
2016-06-09T09:55:24.113Z,995.76
2016-06-09T09:56:24.132Z,995.81
2016-06-09T09:57:24.134Z,995.74
2016-06-09T09:58:24.153Z,995.68
2016-06-09T09:59:24.171Z,995.66
2016-06-09T10:00:24.378Z,995.61
2016-06-09T10:01:24.194Z,995.61
2016-06-09T10:02:24.212Z,995.69
2016-06-09T10:03:24.231Z,995.6
2016-06-09T10:04:24.249Z,995.59
2016-06-09T10:05:24.252Z,995.57
2016-06-09T10:06:24.318Z,995.49
2016-06-09T10:07:24.508Z,995.47
2016-06-09T10:09:24.328Z,995.47
2016-06-09T10:10:24.330Z,995.57
2016-06-09T10:11:24.350Z,995.61
2016-06-09T10:12:24.368Z,995.73
2016-06-09T10:13:24.387Z,995.78
2016-06-09T10:14:24.624Z,995.7
2016-06-09T10:15:24.627Z,995.78
2016-06-09T10:16:24.443Z,995.68
2016-06-09T10:17:24.446Z,995.58
2016-06-09T10:18:24.464Z,995.52
2016-06-09T10:19:24.483Z,995.56
2016-06-09T10:20:24.736Z,995.69
2016-06-09T10:21:25.006Z,995.64
2016-06-09T10:22:24.539Z,995.62
2016-06-09T10:23:24.543Z,995.63
2016-06-09T10:24:24.561Z,995.59
2016-06-09T10:25:24.610Z,995.63
2016-06-09T10:26:24.598Z,995.54
2016-06-09T10:27:24.836Z,995.44
2016-06-09T10:28:24.636Z,995.46
2016-06-09T10:29:24.655Z,995.48
2016-06-09T10:30:24.658Z,995.58
2016-06-09T10:31:24.677Z,995.66
2016-06-09T10:33:24.729Z,995.57
2016-06-09T10:34:24.732Z,995.46
2016-06-09T10:35:24.735Z,995.43
2016-06-09T10:36:24.770Z,995.37
2016-06-09T10:37:24.772Z,995.38
2016-06-09T10:38:24.791Z,995.46
2016-06-09T10:39:24.794Z,995.52
2016-06-09T10:40:24.814Z,995.58
2016-06-09T10:41:24.848Z,995.52
2016-06-09T10:42:24.851Z,995.48
2016-06-09T10:43:24.869Z,995.44
2016-06-09T10:44:25.107Z,995.39
2016-06-09T10:45:24.907Z,995.4
2016-06-09T10:46:24.926Z,995.4
2016-06-09T10:47:24.944Z,995.48
2016-06-09T10:48:25.166Z,995.53
2016-06-09T10:49:24.967Z,995.54
2016-06-09T10:50:24.984Z,995.51
2016-06-09T10:51:25.191Z,995.45
2016-06-09T10:52:25.022Z,995.37
2016-06-09T10:53:25.025Z,995.33
2016-06-09T10:54:25.044Z,995.35
2016-06-09T10:55:25.062Z,995.36
2016-06-09T10:56:25.081Z,995.34
2016-06-09T10:57:25.100Z,995.32
2016-06-09T10:58:25.119Z,995.32
2016-06-09T10:59:25.122Z,995.33
2016-06-09T11:00:25.141Z,995.29
2016-06-09T11:01:25.174Z,995.24
2016-06-09T11:02:25.178Z,995.3
2016-06-09T11:03:25.212Z,995.3
2016-06-09T11:04:25.419Z,995.2
2016-06-09T11:05:25.234Z,995.23
2016-06-09T11:06:25.236Z,995.26
2016-06-09T11:07:25.272Z,995.3
2016-06-09T11:09:25.293Z,995.26
2016-06-09T11:10:25.312Z,995.25
2016-06-09T11:11:25.346Z,995.31
2016-06-09T11:12:25.349Z,995.34
2016-06-09T11:13:25.352Z,995.33
2016-06-09T11:14:25.386Z,995.34
2016-06-09T11:15:25.421Z,995.32
2016-06-09T11:16:25.408Z,995.27
2016-06-09T11:17:25.427Z,995.22
2016-06-09T11:18:25.445Z,995.19
2016-06-09T11:19:25.465Z,995.13
2016-06-09T11:20:25.467Z,995.1
2016-06-09T11:21:25.518Z,995.16
2016-06-09T11:22:25.521Z,995.17
2016-06-09T11:23:25.727Z,995.3
2016-06-09T11:24:25.542Z,995.34
2016-06-09T11:25:25.545Z,995.34
2016-06-09T11:26:25.580Z,995.27
2016-06-09T11:27:25.583Z,995.17
2016-06-09T11:28:25.618Z,995.21
2016-06-09T11:29:25.620Z,995.18
2016-06-09T11:30:25.858Z,995.13
2016-06-09T11:31:25.657Z,995.17
2016-06-09T11:32:25.660Z,995.22
2016-06-09T11:33:25.711Z,995.2
2016-06-09T11:34:25.698Z,995.27
2016-06-09T11:35:25.732Z,995.36
2016-06-09T11:36:25.736Z,995.38
2016-06-09T11:37:25.739Z,995.25
2016-06-09T11:38:25.757Z,995.19
2016-06-09T11:39:25.776Z,995.2
2016-06-09T11:40:25.794Z,995.12
2016-06-09T11:41:25.830Z,995.17
2016-06-09T11:42:25.832Z,995.21
2016-06-09T11:43:25.851Z,995.14
2016-06-09T11:44:25.854Z,995.18
2016-06-09T11:45:25.873Z,995.13
2016-06-09T11:46:25.907Z,995.23
2016-06-09T11:47:25.910Z,995.41
2016-06-09T11:48:25.944Z,995.4
2016-06-09T11:49:25.931Z,995.45
2016-06-09T11:50:25.950Z,995.42
2016-06-09T11:51:26.172Z,995.38
2016-06-09T11:52:26.019Z,995.31
2016-06-09T11:53:26.006Z,995.33
2016-06-09T11:54:26.042Z,995.42
2016-06-09T11:55:26.028Z,995.4
2016-06-09T11:56:26.048Z,995.43
2016-06-09T11:57:26.065Z,995.31
2016-06-09T11:58:26.085Z,995.23
2016-06-09T11:59:26.103Z,995.19
2016-06-09T12:00:26.121Z,995.2
2016-06-09T12:01:26.125Z,995.17
2016-06-09T12:02:26.144Z,995.15
2016-06-09T12:03:26.178Z,995.18
2016-06-09T12:04:26.181Z,995.12
2016-06-09T12:06:27.046Z,995.06
2016-06-09T12:07:26.237Z,995.04
2016-06-09T12:08:26.646Z,995
2016-06-09T12:09:26.290Z,995.08
2016-06-09T12:10:26.277Z,995.11
2016-06-09T12:11:26.328Z,995.07
2016-06-09T12:12:26.549Z,994.98
2016-06-09T12:13:26.364Z,995.01
2016-06-09T12:14:26.352Z,995.01
2016-06-09T12:15:26.371Z,994.99
2016-06-09T12:16:26.437Z,994.99
2016-06-09T12:17:26.627Z,994.94
2016-06-09T12:18:26.443Z,994.97
2016-06-09T12:19:26.430Z,994.95
2016-06-09T12:20:26.449Z,994.89
2016-06-09T12:21:26.717Z,994.93
2016-06-09T12:22:26.486Z,994.89
2016-06-09T12:23:26.676Z,994.9
2016-06-09T12:24:26.524Z,994.9
2016-06-09T12:25:26.542Z,994.86
2016-06-09T12:26:26.546Z,994.86
2016-06-09T12:28:26.582Z,994.81
2016-06-09T12:29:26.602Z,994.8
2016-06-09T12:30:26.620Z,994.8
2016-06-09T12:31:26.623Z,994.77
2016-06-09T12:32:26.642Z,994.77
2016-06-09T12:33:26.676Z,994.77
2016-06-09T12:34:26.914Z,994.75
2016-06-09T12:35:26.713Z,994.71
2016-06-09T12:36:26.717Z,994.69
2016-06-09T12:37:26.736Z,994.66
2016-06-09T12:38:26.786Z,994.66
2016-06-09T12:39:26.772Z,994.63
2016-06-09T12:40:26.807Z,994.68
2016-06-09T12:41:26.811Z,994.55
2016-06-09T12:42:26.814Z,994.62
2016-06-09T12:43:27.035Z,994.6
2016-06-09T12:44:27.085Z,994.59
2016-06-09T12:45:26.869Z,994.55
2016-06-09T12:46:26.904Z,994.59
2016-06-09T12:47:26.907Z,994.61
2016-06-09T12:48:26.925Z,994.56
2016-06-09T12:49:27.131Z,994.54
2016-06-09T12:50:27.151Z,994.52
2016-06-09T12:51:26.967Z,994.51
2016-06-09T12:52:26.969Z,994.52
2016-06-09T12:53:27.206Z,994.53
2016-06-09T12:54:27.006Z,994.58
2016-06-09T12:55:27.057Z,994.55
2016-06-09T12:56:27.059Z,994.49
2016-06-09T12:57:27.063Z,994.52
2016-06-09T12:58:27.081Z,994.51
2016-06-09T12:59:27.084Z,994.51
2016-06-09T13:00:27.103Z,994.42
2016-06-09T13:01:27.137Z,994.53
2016-06-09T13:02:27.359Z,994.45
2016-06-09T13:03:27.159Z,994.44
2016-06-09T13:04:27.177Z,994.43
2016-06-09T13:05:27.213Z,994.41
2016-06-09T13:06:27.403Z,994.45
2016-06-09T13:07:27.219Z,994.4
2016-06-09T13:08:27.237Z,994.36
2016-06-09T13:09:27.255Z,994.34
2016-06-09T13:10:27.275Z,994.32
2016-06-09T13:11:27.293Z,994.31
2016-06-09T13:12:27.327Z,994.29
2016-06-09T13:13:27.362Z,994.3
2016-06-09T13:14:27.349Z,994.27
2016-06-09T13:15:27.353Z,994.28
2016-06-09T13:16:27.621Z,994.26
2016-06-09T13:17:27.624Z,994.26
2016-06-09T13:18:27.393Z,994.23
2016-06-09T13:19:27.631Z,994.21
2016-06-09T13:20:27.431Z,994.18
2016-06-09T13:21:27.448Z,994.18
2016-06-09T13:22:27.499Z,994.16
2016-06-09T13:23:27.501Z,994.14
2016-06-09T13:24:27.504Z,994.18
2016-06-09T13:25:27.555Z,994.18
2016-06-09T13:26:27.542Z,994.21
2016-06-09T13:27:27.561Z,994.19
2016-06-09T13:28:27.783Z,994.16
2016-06-09T13:29:27.599Z,994.2
2016-06-09T13:30:27.602Z,994.22
2016-06-09T13:31:27.620Z,994.22
2016-06-09T13:32:27.623Z,994.19
2016-06-09T13:34:27.661Z,994.34
2016-06-09T13:35:27.695Z,994.29
2016-06-09T13:36:27.698Z,994.28
2016-06-09T13:37:27.717Z,994.25
2016-06-09T13:38:27.736Z,994.2
2016-06-09T13:40:27.757Z,994.2
2016-06-09T13:41:27.791Z,994.08
2016-06-09T13:42:27.794Z,994.12
2016-06-09T13:43:27.813Z,994.14
2016-06-09T13:44:27.832Z,994.08
2016-06-09T13:45:27.835Z,994.15
2016-06-09T13:46:27.854Z,994.13
2016-06-09T13:47:27.904Z,994.12
2016-06-09T13:48:27.907Z,994.14
2016-06-09T13:49:27.910Z,994.17
2016-06-09T13:50:27.928Z,994.1
2016-06-09T13:51:28.181Z,994.1
2016-06-09T13:52:27.950Z,994.12
2016-06-09T13:53:27.969Z,994.16
2016-06-09T13:54:27.988Z,994.18
2016-06-09T13:55:28.006Z,994.13
2016-06-09T13:56:28.244Z,994.15
2016-06-09T13:57:28.045Z,994.15
2016-06-09T13:58:28.048Z,994.11
2016-06-09T13:59:28.066Z,994.18
2016-06-09T14:00:28.100Z,994.16
2016-06-09T14:01:28.102Z,994.25
2016-06-09T14:02:28.105Z,994.21
2016-06-09T14:03:28.140Z,994.2
2016-06-09T14:04:28.144Z,994.22
2016-06-09T14:05:28.365Z,994.22
2016-06-09T14:06:28.197Z,994.18
2016-06-09T14:07:28.200Z,994.17
2016-06-09T14:08:28.234Z,994.17
2016-06-09T14:09:28.237Z,994.08
2016-06-09T14:10:28.256Z,994.04
2016-06-09T14:11:28.275Z,994.03
2016-06-09T14:12:28.699Z,993.99
2016-06-09T14:13:28.296Z,993.98
2016-06-09T14:14:28.315Z,993.93
2016-06-09T14:15:28.520Z,993.92
2016-06-09T14:16:28.540Z,993.93
2016-06-09T14:17:28.356Z,993.93
2016-06-09T14:18:28.390Z,993.92
2016-06-09T14:19:28.377Z,993.98
2016-06-09T14:20:28.411Z,993.98
2016-06-09T14:21:29.086Z,993.96
2016-06-09T14:22:28.465Z,993.97
2016-06-09T14:23:28.452Z,993.96
2016-06-09T14:25:28.505Z,994.04
2016-06-09T14:26:28.492Z,994.06
2016-06-09T14:27:28.512Z,994.07
2016-06-09T14:28:28.530Z,994.04
2016-06-09T14:29:28.564Z,994.02
2016-06-09T14:30:28.771Z,994.01
2016-06-09T14:31:28.774Z,994
2016-06-09T14:32:28.589Z,993.98
2016-06-09T14:33:28.608Z,993.93
2016-06-09T14:34:28.642Z,993.95
2016-06-09T14:35:28.645Z,993.93
2016-06-09T14:37:28.885Z,993.93
2016-06-09T14:39:29.110Z,993.94
2016-06-09T14:40:28.723Z,993.93
2016-06-09T14:41:28.930Z,993.91
2016-06-09T14:42:28.745Z,993.86
2016-06-09T14:43:28.966Z,993.9
2016-06-09T14:44:28.813Z,993.91
2016-06-09T14:45:28.801Z,993.9
2016-06-09T14:46:28.820Z,993.88
2016-06-09T14:47:29.026Z,994
2016-06-09T14:48:28.841Z,994.06
2016-06-09T14:49:29.064Z,994.14
2016-06-09T14:50:28.879Z,994.16
2016-06-09T14:51:29.256Z,994.12
2016-06-09T14:52:28.917Z,994.12
2016-06-09T14:53:28.919Z,994.14
2016-06-09T14:54:28.937Z,994.07
2016-06-09T14:55:28.956Z,994.1
2016-06-09T14:57:28.994Z,994.18
2016-06-09T14:58:28.997Z,994.06
2016-06-09T14:59:29.016Z,994.03
2016-06-09T15:00:29.238Z,993.92
2016-06-09T15:01:29.053Z,993.93
2016-06-09T15:02:29.103Z,993.92
2016-06-09T15:03:29.090Z,993.93
2016-06-09T15:04:29.109Z,993.93
2016-06-09T15:05:29.129Z,993.89
2016-06-09T15:06:29.131Z,993.91
2016-06-09T15:07:29.150Z,993.92
2016-06-09T15:08:29.168Z,993.98
2016-06-09T15:09:29.187Z,993.99
2016-06-09T15:10:29.237Z,994.04
2016-06-09T15:11:29.240Z,994.04
2016-06-09T15:12:29.665Z,994.05
2016-06-09T15:13:29.262Z,994.06
2016-06-09T15:14:29.312Z,994.03
2016-06-09T15:15:29.299Z,994.05
2016-06-09T15:16:29.350Z,994.02
2016-06-09T15:17:29.337Z,994.02
2016-06-09T15:18:29.339Z,993.96
2016-06-09T15:19:29.358Z,993.94
2016-06-09T15:20:29.392Z,993.95
2016-06-09T15:21:29.427Z,993.91
2016-06-09T15:22:29.415Z,993.93
2016-06-09T15:23:29.434Z,994
2016-06-09T15:24:29.437Z,993.97
2016-06-09T15:25:29.454Z,993.94
2016-06-09T15:26:29.693Z,993.87
2016-06-09T15:27:29.508Z,993.87
2016-06-09T15:28:29.511Z,993.9
2016-06-09T15:29:29.733Z,993.88
2016-06-09T15:30:29.548Z,993.93
2016-06-09T15:31:29.755Z,993.92
2016-06-09T15:32:29.601Z,993.87
2016-06-09T15:33:29.605Z,993.87
2016-06-09T15:34:29.607Z,993.86
2016-06-09T15:35:29.626Z,993.84
2016-06-09T15:36:29.644Z,993.85
2016-06-09T15:37:30.180Z,993.83
2016-06-09T15:38:29.683Z,993.82
2016-06-09T15:39:29.701Z,993.84
2016-06-09T15:40:29.907Z,993.92
2016-06-09T15:41:29.723Z,993.95
2016-06-09T15:42:29.742Z,993.97
2016-06-09T15:43:29.776Z,993.92
2016-06-09T15:44:29.794Z,993.93
2016-06-09T15:45:29.797Z,993.95
2016-06-09T15:46:29.833Z,993.85
2016-06-09T15:47:30.054Z,993.87
2016-06-09T15:48:29.838Z,993.83
2016-06-09T15:49:29.888Z,993.84
2016-06-09T15:50:29.876Z,993.84
2016-06-09T15:51:29.894Z,993.91
2016-06-09T15:52:29.913Z,993.84
2016-06-09T15:53:30.135Z,993.74
2016-06-09T15:54:29.950Z,993.68
2016-06-09T15:55:29.969Z,993.67
2016-06-09T15:56:29.972Z,993.66
2016-06-09T15:57:29.991Z,993.71
2016-06-09T15:58:30.009Z,993.77
2016-06-09T15:59:30.231Z,993.83
2016-06-09T16:00:30.048Z,993.82
2016-06-09T16:01:30.066Z,993.82
2016-06-09T16:02:30.069Z,993.82
2016-06-09T16:03:30.087Z,993.84
2016-06-09T16:04:30.106Z,993.84
2016-06-09T16:05:30.124Z,993.84
2016-06-09T16:06:30.159Z,993.84
2016-06-09T16:07:30.162Z,993.85
2016-06-09T16:08:30.197Z,993.85
2016-06-09T16:10:30.203Z,993.86
2016-06-09T16:11:30.221Z,993.83
2016-06-09T16:12:30.630Z,993.81
2016-06-09T16:13:30.275Z,993.84
2016-06-09T16:14:30.465Z,993.82
2016-06-09T16:15:30.281Z,993.74
2016-06-09T16:16:30.315Z,993.71
2016-06-09T16:17:30.317Z,993.7
2016-06-09T16:18:30.353Z,993.68
2016-06-09T16:19:30.355Z,993.68
2016-06-09T16:20:30.593Z,993.61
2016-06-09T16:21:30.393Z,993.66
2016-06-09T16:22:30.396Z,993.66
2016-06-09T16:23:30.399Z,993.58
2016-06-09T16:24:30.417Z,993.57
2016-06-09T16:25:30.686Z,993.6
2016-06-09T16:26:30.658Z,993.6
2016-06-09T16:27:30.473Z,993.58
2016-06-09T16:28:30.492Z,993.6
2016-06-09T16:29:30.496Z,993.56
2016-06-09T16:30:30.749Z,993.6
2016-06-09T16:31:30.533Z,993.6
2016-06-09T16:32:30.583Z,993.59
2016-06-09T16:33:30.570Z,993.63
2016-06-09T16:34:30.573Z,993.59
2016-06-09T16:35:30.592Z,993.64
2016-06-09T16:36:30.814Z,993.61
2016-06-09T16:37:30.629Z,993.61
2016-06-09T16:38:30.632Z,993.58
2016-06-09T16:39:30.652Z,993.6
2016-06-09T16:40:30.670Z,993.61
2016-06-09T16:41:30.688Z,993.6
2016-06-09T16:42:30.708Z,993.65
2016-06-09T16:43:30.711Z,993.6
2016-06-09T16:44:30.728Z,993.59
2016-06-09T16:45:30.747Z,993.61
2016-06-09T16:46:30.767Z,993.61
2016-06-09T16:47:30.770Z,993.71
2016-06-09T16:48:30.788Z,993.75
2016-06-09T16:49:30.807Z,993.78
2016-06-09T16:50:30.826Z,993.75
2016-06-09T16:51:30.829Z,993.76
2016-06-09T16:52:30.847Z,993.76
2016-06-09T16:53:30.867Z,993.77
2016-06-09T16:54:30.916Z,993.76
2016-06-09T16:55:30.888Z,993.72
2016-06-09T16:56:30.906Z,993.69
2016-06-09T16:57:31.160Z,993.74
2016-06-09T16:58:30.944Z,993.69
2016-06-09T16:59:30.946Z,993.71
2016-06-09T17:00:30.966Z,993.73
2016-06-09T17:01:31.172Z,993.77
2016-06-09T17:02:30.988Z,993.73
2016-06-09T17:03:31.006Z,993.77
2016-06-09T17:04:31.447Z,993.74
2016-06-09T17:05:31.029Z,993.79
2016-06-09T17:06:31.046Z,993.8
2016-06-09T17:07:31.597Z,993.75
2016-06-09T17:08:31.084Z,993.75
2016-06-09T17:09:31.088Z,993.73
2016-06-09T17:10:31.106Z,993.75
2016-06-09T17:12:31.144Z,993.73
2016-06-09T17:14:31.165Z,993.68
2016-06-09T17:15:31.168Z,993.68
2016-06-09T17:16:31.187Z,993.68
2016-06-09T17:17:31.440Z,993.69
2016-06-09T17:18:31.444Z,993.68
2016-06-09T17:19:31.509Z,993.75
2016-06-09T17:20:31.652Z,993.72
2016-06-09T17:21:31.312Z,993.75
2016-06-09T17:22:31.471Z,993.73
2016-06-09T17:23:31.302Z,993.76
2016-06-09T17:24:31.321Z,993.78
2016-06-09T17:25:31.386Z,993.73
2016-06-09T17:26:31.530Z,993.76
2016-06-09T17:27:31.345Z,993.73
2016-06-09T17:28:31.349Z,993.7
2016-06-09T17:29:31.399Z,993.7
2016-06-09T17:30:31.386Z,993.67
2016-06-09T17:31:31.416Z,993.63
2016-06-09T17:32:31.461Z,993.62
2016-06-09T17:33:31.521Z,993.64
2016-06-09T17:34:31.582Z,993.68
2016-06-09T17:35:31.643Z,993.68
2016-06-09T17:36:31.680Z,993.63
2016-06-09T17:38:31.763Z,993.67
2016-06-09T17:39:31.766Z,993.63
2016-06-09T17:40:31.831Z,993.67
2016-06-09T17:41:31.830Z,993.68
2016-06-09T17:42:31.838Z,993.68
2016-06-09T17:43:31.864Z,993.71
2016-06-09T17:44:31.903Z,993.69
2016-06-09T17:45:31.928Z,993.79
2016-06-09T17:46:31.919Z,993.75
2016-06-09T17:47:31.955Z,993.64
2016-06-09T17:48:31.945Z,993.63
2016-06-09T17:49:31.965Z,993.62
2016-06-09T17:50:31.970Z,993.65
2016-06-09T17:51:31.991Z,993.58
2016-06-09T17:52:32.291Z,993.61
2016-06-09T17:53:32.061Z,993.58
2016-06-09T17:54:32.267Z,993.53
2016-06-09T17:55:32.053Z,993.53
2016-06-09T17:56:32.478Z,993.49
2016-06-09T17:57:32.075Z,993.46
2016-06-09T17:58:32.157Z,993.44
2016-06-09T17:59:32.114Z,993.47
2016-06-09T18:00:32.164Z,993.48
2016-06-09T18:01:32.386Z,993.48
2016-06-09T18:02:32.154Z,993.46
2016-06-09T18:03:32.158Z,993.45
2016-06-09T18:04:32.176Z,993.41
2016-06-09T18:05:32.195Z,993.4
2016-06-09T18:06:32.198Z,993.36
2016-06-09T18:07:32.218Z,993.35
2016-06-09T18:08:32.235Z,993.31
2016-06-09T18:09:32.238Z,993.26
2016-06-09T18:10:32.257Z,993.28
2016-06-09T18:11:32.480Z,993.24
2016-06-09T18:12:32.310Z,993.19
2016-06-09T18:13:32.314Z,993.22
2016-06-09T18:14:32.317Z,993.25